Time;durP1;ratioP1;P1;durP2;ratioP2;P2;SDS_P1;SDS_P2;PMS_P1;PMS_P2;Temp;Humidity;BMP_temperature;BMP_pressure;BME280_temperature;BME280_humidity;BME280_pressure;Samples;Min_cycle;Max_cycle;Signal;HPM_P1;HPM_P2
2023/01/12 00:01:25;;;;;;;7.85;6.85;;;7.70;99.90;;;;;;5038383;28;20204;-87
2023/01/12 00:03:56;;;;;;;9.75;7.70;;;7.70;99.90;;;;;;5037320;28;20201;-88
2023/01/12 00:06:31;;;;;;;8.50;7.60;;;7.70;99.90;;;;;;5055375;28;20193;-87
2023/01/12 00:09:13;;;;;;;9.50;7.28;;;7.80;99.90;;;;;;5022091;28;20264;-85
2023/01/12 00:11:47;;;;;;;10.25;7.75;;;7.70;99.90;;;;;;5029180;28;20238;-86
2023/01/12 00:14:15;;;;;;;14.73;8.23;;;7.50;99.90;;;;;;5027924;28;20396;-86
2023/01/12 00:16:57;;;;;;;8.90;7.97;;;7.50;99.90;;;;;;5035095;28;20207;-85
2023/01/12 00:19:26;;;;;;;11.23;7.38;;;7.60;99.90;;;;;;5057597;28;20217;-87
2023/01/12 00:22:00;;;;;;;8.40;7.00;;;7.70;99.90;;;;;;5033127;28;20488;-85
2023/01/12 00:24:46;;;;;;;10.57;6.68;;;7.70;99.90;;;;;;5033524;28;20206;-85
2023/01/12 00:27:20;;;;;;;9.48;6.47;;;7.80;99.90;;;;;;5058993;28;20206;-86
2023/01/12 00:30:06;;;;;;;9.90;7.28;;;7.70;99.90;;;;;;5041288;28;20270;-85
2023/01/12 00:32:33;;;;;;;9.75;7.10;;;7.70;99.90;;;;;;5045165;28;20190;-88
2023/01/12 00:35:04;;;;;;;10.20;7.60;;;7.70;99.90;;;;;;5065570;28;20192;-86
2023/01/12 00:37:33;;;;;;;9.35;6.80;;;7.70;99.90;;;;;;5040156;28;20193;-88
2023/01/12 00:40:01;;;;;;;10.82;7.80;;;7.70;99.90;;;;;;5052819;28;20192;-83
2023/01/12 00:45:21;;;;;;;8.50;7.05;;;7.80;99.90;;;;;;5045984;28;20212;-85
2023/01/12 00:47:49;;;;;;;9.48;7.13;;;7.60;99.90;;;;;;5047703;28;20424;-85
2023/01/12 00:50:22;;;;;;;9.18;7.15;;;7.70;99.90;;;;;;5045872;28;20233;-85
2023/01/12 00:52:51;;;;;;;9.57;8.55;;;7.80;99.90;;;;;;5062136;28;20216;-86
2023/01/12 00:55:19;;;;;;;14.88;8.43;;;8.00;99.90;;;;;;5047369;28;20232;-85
2023/01/12 00:58:02;;;;;;;12.23;7.05;;;7.90;99.90;;;;;;5045619;28;20209;-86
2023/01/12 01:00:31;;;;;;;10.20;7.90;;;7.70;99.90;;;;;;5037889;28;20192;-86
2023/01/12 01:02:59;;;;;;;12.77;9.13;;;7.60;99.90;;;;;;5060395;28;20299;-84
2023/01/12 01:05:30;;;;;;;13.30;8.52;;;7.70;99.90;;;;;;5046825;28;20441;-87
2023/01/12 01:08:04;;;;;;;12.77;8.63;;;7.80;99.90;;;;;;5048855;28;20172;-87
2023/01/12 01:10:50;;;;;;;8.85;7.13;;;7.90;99.90;;;;;;5047361;28;20242;-89
2023/01/12 01:13:22;;;;;;;14.80;10.55;;;8.00;99.90;;;;;;5064961;28;20204;-85
2023/01/12 01:15:51;;;;;;;14.75;9.70;;;7.80;99.90;;;;;;5037588;28;20205;-85
2023/01/12 01:18:30;;;;;;;11.50;8.60;;;7.90;99.90;;;;;;5035535;28;20222;-84
2023/01/12 01:21:18;;;;;;;17.30;7.85;;;7.90;99.90;;;;;;5043616;28;20195;-86
2023/01/12 01:23:45;;;;;;;13.43;9.10;;;7.60;99.90;;;;;;5041501;28;20212;-84
2023/01/12 01:26:16;;;;;;;14.20;8.95;;;7.70;99.90;;;;;;5038612;28;20217;-85
2023/01/12 01:29:05;;;;;;;18.85;10.00;;;7.60;99.90;;;;;;5049400;28;20232;-83
2023/01/12 01:31:32;;;;;;;21.55;9.40;;;7.50;99.90;;;;;;5035965;28;20236;-85
2023/01/12 01:34:01;;;;;;;12.77;9.32;;;7.50;99.90;;;;;;5031876;28;20714;-84
2023/01/12 01:36:29;;;;;;;10.30;7.65;;;7.60;99.90;;;;;;5054870;28;20213;-83
2023/01/12 01:39:05;;;;;;;14.30;10.25;;;7.60;99.90;;;;;;5030631;28;20562;-83
2023/01/12 01:41:37;;;;;;;13.05;9.40;;;7.60;99.90;;;;;;5032960;28;20212;-84
2023/01/12 01:44:24;;;;;;;10.73;9.18;;;7.60;99.90;;;;;;5038097;28;20267;-85
2023/01/12 01:47:06;;;;;;;14.13;9.65;;;7.50;99.90;;;;;;5040670;28;20211;-85
2023/01/12 01:49:41;;;;;;;9.48;8.18;;;7.40;99.90;;;;;;5035705;28;20278;-84
2023/01/12 01:52:15;;;;;;;13.50;12.20;;;7.10;99.90;;;;;;5050367;28;20207;-84
2023/01/12 01:54:49;;;;;;;11.60;8.10;;;7.10;99.90;;;;;;5029876;28;20411;-83
2023/01/12 01:57:17;;;;;;;17.50;9.80;;;7.30;99.90;;;;;;5026670;28;20235;-84
2023/01/12 01:59:50;;;;;;;17.52;10.65;;;7.30;99.90;;;;;;5031728;28;20240;-84
2023/01/12 02:02:23;;;;;;;16.30;10.25;;;7.30;99.90;;;;;;5033754;28;20196;-84
2023/01/12 02:04:54;;;;;;;13.43;9.90;;;7.20;99.90;;;;;;5053268;28;20714;-84
2023/01/12 02:07:22;;;;;;;15.52;9.95;;;7.20;99.90;;;;;;5039106;28;20208;-86
2023/01/12 02:09:49;;;;;;;13.80;8.52;;;7.30;99.90;;;;;;5035483;28;20703;-88
2023/01/12 02:17:56;;;;;;;10.60;7.75;;;7.40;99.90;;;;;;5022582;28;20208;-84
2023/01/12 02:21:02;;;;;;;10.60;8.07;;;7.50;99.90;;;;;;5032977;28;20274;-84
2023/01/12 02:23:43;;;;;;;13.52;9.10;;;7.40;99.90;;;;;;5028130;28;20439;-84
2023/01/12 02:26:16;;;;;;;16.85;8.98;;;7.40;99.90;;;;;;5024226;28;20439;-84
2023/01/12 02:29:04;;;;;;;14.18;9.07;;;7.50;99.90;;;;;;5028888;28;20204;-83
2023/01/12 02:31:47;;;;;;;11.43;8.88;;;7.20;99.90;;;;;;5032204;28;20219;-85
2023/01/12 02:34:29;;;;;;;10.50;7.28;;;7.20;99.90;;;;;;5036500;28;20204;-83
2023/01/12 02:37:19;;;;;;;9.07;7.22;;;7.00;99.90;;;;;;5022306;28;20193;-83
2023/01/12 02:40:16;;;;;;;11.93;9.52;;;6.70;99.90;;;;;;5037478;28;20212;-84
2023/01/12 02:42:54;;;;;;;10.57;7.07;;;6.60;99.90;;;;;;5039580;28;20204;-83
2023/01/12 02:45:41;;;;;;;14.52;10.10;;;6.60;99.90;;;;;;5028738;28;20221;-83
2023/01/12 02:48:26;;;;;;;16.50;10.00;;;6.40;99.90;;;;;;5031650;28;20255;-83
2023/01/12 02:51:05;;;;;;;10.60;8.75;;;6.60;99.90;;;;;;5040457;28;20623;-83
2023/01/12 02:53:53;;;;;;;16.63;8.02;;;6.60;99.90;;;;;;5027242;28;20504;-83
2023/01/12 02:56:34;;;;;;;13.38;8.57;;;6.60;99.90;;;;;;5040704;28;20220;-85
2023/01/12 02:59:32;;;;;;;11.57;7.90;;;6.50;99.90;;;;;;5040572;28;20246;-83
2023/01/12 03:02:15;;;;;;;10.95;8.00;;;6.30;99.90;;;;;;5042997;28;20204;-82
2023/01/12 03:04:43;;;;;;;12.82;9.68;;;6.20;99.90;;;;;;5055556;28;20482;-84
2023/01/12 03:07:19;;;;;;;11.35;9.18;;;6.30;99.90;;;;;;5039262;28;20206;-85
2023/01/12 03:09:54;;;;;;;13.40;10.95;;;6.20;99.90;;;;;;5053895;28;20204;-84
2023/01/12 03:12:35;;;;;;;11.88;7.68;;;6.50;99.90;;;;;;5044217;28;20204;-84
2023/01/12 03:15:11;;;;;;;11.77;8.25;;;6.40;99.90;;;;;;5044808;28;20239;-85
2023/01/12 03:17:44;;;;;;;14.00;8.55;;;6.20;99.90;;;;;;5039681;28;20258;-86
2023/01/12 03:20:30;;;;;;;12.40;8.77;;;6.10;99.90;;;;;;5027669;28;20507;-87
2023/01/12 03:23:04;;;;;;;10.10;8.25;;;6.00;99.90;;;;;;5055412;28;20431;-87
2023/01/12 03:25:33;;;;;;;14.35;9.20;;;5.80;99.90;;;;;;5032794;28;20211;-86
2023/01/12 03:28:05;;;;;;;16.70;8.90;;;5.80;99.90;;;;;;5030138;28;20508;-84
2023/01/12 03:31:09;;;;;;;12.77;9.40;;;6.00;99.90;;;;;;5042777;28;20235;-84
2023/01/12 03:33:41;;;;;;;12.75;9.15;;;6.30;99.90;;;;;;5042200;28;20242;-85
2023/01/12 03:36:32;;;;;;;9.35;8.27;;;6.20;99.90;;;;;;5042920;28;20206;-85
2023/01/12 03:39:08;;;;;;;16.73;9.90;;;6.30;99.90;;;;;;5036207;28;20247;-85
2023/01/12 03:41:55;;;;;;;20.92;9.63;;;6.50;99.90;;;;;;5040318;28;20523;-84
2023/01/12 03:44:42;;;;;;;12.32;8.60;;;6.50;99.90;;;;;;5040637;28;20206;-83
2023/01/12 03:47:16;;;;;;;11.90;8.00;;;6.50;99.90;;;;;;5049861;28;20789;-86
2023/01/12 03:49:49;;;;;;;14.38;9.30;;;6.50;99.90;;;;;;5033973;28;20211;-82
2023/01/12 03:52:18;;;;;;;11.43;9.00;;;6.30;99.90;;;;;;5029686;28;20439;-85
2023/01/12 03:54:47;;;;;;;13.55;8.85;;;5.90;99.90;;;;;;5042631;28;20567;-86
2023/01/12 03:57:15;;;;;;;13.90;9.32;;;5.70;99.90;;;;;;5036607;28;20248;-84
2023/01/12 03:59:43;;;;;;;11.95;9.15;;;5.70;99.90;;;;;;5034239;28;20538;-85
2023/01/12 04:02:13;;;;;;;12.85;8.80;;;5.60;99.90;;;;;;5041493;28;20208;-84
2023/01/12 04:04:40;;;;;;;11.98;10.05;;;5.50;99.90;;;;;;5039389;28;20262;-84
2023/01/12 04:07:07;;;;;;;15.48;10.02;;;5.50;99.90;;;;;;5058651;28;20235;-84
2023/01/12 04:09:34;;;;;;;15.55;8.90;;;5.30;99.90;;;;;;5044334;28;20278;-89
2023/01/12 04:12:10;;;;;;;14.60;9.77;;;5.30;99.90;;;;;;5043919;28;20220;-83
2023/01/12 04:14:44;;;;;;;13.43;10.02;;;5.40;99.90;;;;;;5045666;28;20213;-84
2023/01/12 04:17:15;;;;;;;15.30;9.45;;;5.30;99.90;;;;;;5039782;28;20203;-82
2023/01/12 04:19:42;;;;;;;17.58;10.38;;;5.30;99.90;;;;;;5043330;28;20208;-88
2023/01/12 04:25:01;;;;;;;17.73;10.02;;;5.00;99.90;;;;;;5043775;28;20214;-84
2023/01/12 04:27:29;;;;;;;15.82;10.75;;;4.90;99.90;;;;;;5025586;28;20235;-84
2023/01/12 04:29:55;;;;;;;12.20;9.40;;;4.90;99.90;;;;;;5029855;28;20207;-87
2023/01/12 04:32:23;;;;;;;11.80;10.15;;;4.90;99.90;;;;;;5024158;28;20223;-88
2023/01/12 04:34:50;;;;;;;15.48;10.70;;;4.60;99.90;;;;;;5039886;28;20216;-89
2023/01/12 04:37:17;;;;;;;16.65;9.43;;;4.60;99.90;;;;;;5026578;28;20220;-84
2023/01/12 04:39:44;;;;;;;13.57;11.07;;;4.60;99.90;;;;;;5041622;28;20205;-85
2023/01/12 04:45:01;;;;;;;11.43;8.50;;;4.50;99.90;;;;;;5036052;28;20212;-85
2023/01/12 04:47:28;;;;;;;24.95;11.60;;;4.40;99.90;;;;;;5041238;28;20279;-89
2023/01/12 04:49:56;;;;;;;15.40;12.10;;;4.40;99.90;;;;;;5048162;28;20497;-92
2023/01/12 04:52:24;;;;;;;17.10;13.02;;;4.30;99.90;;;;;;5051472;28;20214;-90
2023/01/12 04:54:52;;;;;;;18.92;14.23;;;4.30;99.90;;;;;;5040186;28;20188;-89
2023/01/12 04:57:23;;;;;;;27.33;17.48;;;4.50;99.90;;;;;;5049297;28;20208;-89
2023/01/12 04:59:50;;;;;;;22.40;13.05;;;4.50;99.90;;;;;;5066645;28;20212;-85
2023/01/12 05:02:18;;;;;;;21.38;15.35;;;4.50;99.90;;;;;;5027956;28;20262;-84
2023/01/12 05:04:48;;;;;;;18.90;14.02;;;4.60;99.90;;;;;;5024104;28;20258;-84
2023/01/12 05:07:18;;;;;;;26.25;16.90;;;4.50;99.90;;;;;;5029372;28;20201;-84
2023/01/12 05:12:32;;;;;;;28.00;16.90;;;4.50;99.90;;;;;;5041600;28;20211;-86
2023/01/12 05:14:59;;;;;;;24.15;17.90;;;4.20;99.90;;;;;;5028671;28;20200;-89
2023/01/12 05:17:31;;;;;;;21.58;14.88;;;4.20;99.90;;;;;;5027227;28;20238;-89
2023/01/12 05:19:59;;;;;;;26.13;16.92;;;4.10;99.90;;;;;;5034140;28;20208;-86
2023/01/12 05:22:27;;;;;;;26.10;17.60;;;4.20;99.90;;;;;;5028899;28;20271;-86
2023/01/12 05:24:55;;;;;;;23.35;15.68;;;4.20;99.90;;;;;;5030801;28;20208;-86
2023/01/12 05:27:24;;;;;;;27.15;19.60;;;4.30;99.90;;;;;;5037127;28;20222;-85
2023/01/12 05:29:51;;;;;;;29.45;19.60;;;4.40;99.90;;;;;;5042389;28;20211;-84
2023/01/12 05:32:22;;;;;;;19.25;14.50;;;4.50;99.90;;;;;;5043125;28;20294;-85
2023/01/12 05:34:50;;;;;;;23.08;15.30;;;4.50;99.90;;;;;;5042330;28;20214;-86
2023/01/12 05:37:24;;;;;;;19.17;13.95;;;4.60;99.90;;;;;;5055138;28;20408;-83
2023/01/12 05:39:56;;;;;;;22.42;14.20;;;4.80;99.90;;;;;;5055993;28;20212;-84
2023/01/12 05:45:11;;;;;;;18.58;12.65;;;4.70;99.90;;;;;;5035964;28;20268;-86
2023/01/12 05:47:39;;;;;;;21.58;11.30;;;4.60;99.90;;;;;;5030192;28;20226;-86
2023/01/12 05:50:07;;;;;;;13.13;10.85;;;4.70;99.90;;;;;;5038104;28;20273;-90
2023/01/12 05:52:34;;;;;;;14.02;11.05;;;4.60;99.90;;;;;;5044216;28;20285;-84
2023/01/12 05:55:01;;;;;;;16.52;11.25;;;4.50;99.90;;;;;;5039619;28;20378;-84
2023/01/12 05:57:29;;;;;;;16.33;11.93;;;4.60;99.90;;;;;;5062710;28;20218;-83
2023/01/12 05:59:59;;;;;;;15.63;10.50;;;4.60;99.90;;;;;;5036170;28;20204;-85
2023/01/12 06:02:27;;;;;;;17.10;9.52;;;4.70;99.90;;;;;;5038197;28;20239;-84
2023/01/12 06:04:54;;;;;;;16.25;11.98;;;4.70;99.90;;;;;;5038230;28;20201;-86
2023/01/12 06:07:21;;;;;;;17.33;9.82;;;4.40;99.90;;;;;;5044439;28;20419;-84
2023/01/12 06:09:48;;;;;;;15.52;10.20;;;4.50;99.90;;;;;;5037119;28;20204;-85
2023/01/12 06:15:01;;;;;;;15.32;12.10;;;4.40;99.90;;;;;;5040076;28;20233;-87
2023/01/12 06:17:29;;;;;;;16.58;11.48;;;4.50;99.90;;;;;;5054705;28;20321;-87
2023/01/12 06:19:56;;;;;;;19.60;13.82;;;4.50;99.90;;;;;;5051456;28;20527;-87
2023/01/12 06:22:25;;;;;;;18.08;11.88;;;4.40;99.90;;;;;;5050340;28;20564;-86
2023/01/12 06:24:53;;;;;;;17.80;12.65;;;4.50;99.90;;;;;;5038745;28;20247;-88
2023/01/12 06:27:20;;;;;;;17.83;12.77;;;4.50;99.90;;;;;;5061055;28;20311;-86
2023/01/12 06:29:48;;;;;;;16.42;14.13;;;4.50;99.90;;;;;;5058751;28;20215;-86
2023/01/12 06:32:15;;;;;;;18.08;14.70;;;4.50;99.90;;;;;;5034713;28;20275;-84
2023/01/12 06:34:42;;;;;;;21.60;13.05;;;4.10;99.90;;;;;;5035814;28;20502;-84
2023/01/12 06:37:10;;;;;;;17.05;12.07;;;4.10;99.90;;;;;;5032055;28;20207;-85
2023/01/12 06:39:37;;;;;;;13.35;11.50;;;4.10;99.90;;;;;;5027798;28;20220;-86
2023/01/12 06:44:50;;;;;;;15.95;10.80;;;4.10;99.90;;;;;;5029294;28;20216;-86
2023/01/12 06:47:17;;;;;;;16.15;10.63;;;4.10;99.90;;;;;;5052837;28;20206;-83
2023/01/12 06:49:43;;;;;;;19.23;11.20;;;4.20;99.90;;;;;;5039296;28;20207;-83
2023/01/12 06:52:10;;;;;;;15.18;10.88;;;4.10;99.90;;;;;;5040750;28;20231;-88
2023/01/12 06:54:37;;;;;;;16.75;12.77;;;4.00;99.90;;;;;;5035751;28;20207;-86
2023/01/12 06:57:04;;;;;;;19.98;11.88;;;4.20;99.90;;;;;;5050746;28;20210;-87
2023/01/12 06:59:31;;;;;;;21.40;10.90;;;4.30;99.90;;;;;;5040053;28;20238;-86
2023/01/12 07:01:58;;;;;;;17.55;11.60;;;4.30;99.90;;;;;;5037266;28;20203;-87
2023/01/12 07:04:25;;;;;;;18.58;11.93;;;4.40;99.90;;;;;;5043142;28;20206;-87
2023/01/12 07:06:54;;;;;;;19.98;10.95;;;4.40;99.90;;;;;;5039585;28;20387;-82
2023/01/12 07:09:20;;;;;;;18.08;12.63;;;4.50;99.90;;;;;;5038509;28;20218;-88
2023/01/12 07:11:47;;;;;;;18.00;9.88;;;4.40;99.90;;;;;;5063229;28;20242;-86
2023/01/12 07:14:14;;;;;;;17.23;10.95;;;4.50;99.90;;;;;;5047016;28;20234;-85
2023/01/12 07:16:41;;;;;;;12.40;10.90;;;4.50;99.90;;;;;;5048246;28;20202;-85
2023/01/12 07:19:08;;;;;;;20.65;11.32;;;4.50;99.90;;;;;;5060409;28;20506;-86
2023/01/12 07:21:35;;;;;;;10.50;9.15;;;4.40;99.90;;;;;;5046784;28;20495;-83
2023/01/12 07:24:01;;;;;;;14.35;8.45;;;4.40;99.90;;;;;;5040588;28;20208;-84
2023/01/12 07:26:29;;;;;;;14.85;8.63;;;4.60;99.90;;;;;;5047062;28;20207;-84
2023/01/12 07:28:55;;;;;;;9.60;8.68;;;4.40;99.90;;;;;;5037112;28;20212;-85
2023/01/12 07:31:22;;;;;;;11.70;7.70;;;4.50;99.90;;;;;;5039753;28;20235;-88
2023/01/12 07:33:53;;;;;;;9.32;7.18;;;4.40;99.90;;;;;;5062038;28;20237;-87
2023/01/12 07:36:21;;;;;;;11.57;7.22;;;4.50;99.90;;;;;;5046732;28;20203;-86
2023/01/12 07:38:48;;;;;;;7.43;5.80;;;4.70;99.90;;;;;;5042285;28;20205;-84
2023/01/12 07:44:00;;;;;;;8.05;6.50;;;5.00;99.90;;;;;;5035067;28;20192;-85
2023/01/12 07:46:27;;;;;;;10.75;7.60;;;5.00;99.90;;;;;;5038703;28;20733;-85
2023/01/12 07:48:54;;;;;;;7.13;6.53;;;5.10;99.90;;;;;;5056579;28;20220;-85
2023/01/12 07:51:20;;;;;;;8.55;7.15;;;5.20;99.90;;;;;;5046178;28;20323;-84
2023/01/12 07:53:47;;;;;;;8.00;6.43;;;5.30;99.90;;;;;;5060414;28;20204;-85
2023/01/12 07:56:15;;;;;;;10.25;7.95;;;5.40;99.90;;;;;;5040965;28;20211;-85
2023/01/12 07:58:47;;;;;;;14.25;6.63;;;5.40;99.90;;;;;;5035588;28;20208;-86
2023/01/12 08:01:14;;;;;;;10.57;8.05;;;5.50;99.90;;;;;;5036129;28;20200;-84
2023/01/12 08:03:41;;;;;;;23.63;10.73;;;5.50;99.90;;;;;;5036205;28;20210;-84
2023/01/12 08:06:08;;;;;;;28.42;13.88;;;5.50;99.90;;;;;;5036129;28;20254;-84
2023/01/12 08:08:35;;;;;;;11.18;8.07;;;5.70;99.90;;;;;;5040807;28;20212;-86
2023/01/12 08:11:08;;;;;;;18.85;8.98;;;5.60;99.90;;;;;;5034324;28;20217;-83
2023/01/12 08:13:35;;;;;;;12.07;7.15;;;5.70;99.90;;;;;;5040595;28;20201;-85
2023/01/12 08:16:07;;;;;;;12.27;6.78;;;5.70;99.90;;;;;;5023212;28;20212;-83
2023/01/12 08:18:45;;;;;;;16.60;8.07;;;5.70;99.90;;;;;;5038291;28;20205;-85
2023/01/12 08:21:17;;;;;;;11.25;7.13;;;5.80;99.90;;;;;;5031636;28;20200;-86
2023/01/12 08:23:48;;;;;;;11.23;7.18;;;6.00;99.90;;;;;;5034295;28;20204;-85
2023/01/12 08:26:22;;;;;;;11.20;7.78;;;5.90;99.90;;;;;;5042319;28;20251;-85
2023/01/12 08:28:59;;;;;;;10.63;6.28;;;5.60;99.90;;;;;;5034942;28;20274;-86
2023/01/12 08:31:26;;;;;;;6.82;6.13;;;5.80;99.90;;;;;;5051464;28;20208;-87
2023/01/12 08:33:54;;;;;;;9.20;5.82;;;5.80;99.90;;;;;;5051399;28;20204;-85
2023/01/12 08:36:23;;;;;;;5.47;4.20;;;6.00;99.90;;;;;;5040482;28;20597;-85
2023/01/12 08:38:50;;;;;;;9.93;4.80;;;6.10;99.90;;;;;;5039350;28;20227;-85
2023/01/12 08:41:32;;;;;;;5.82;4.00;;;6.20;99.90;;;;;;5040236;28;20224;-85
2023/01/12 08:44:09;;;;;;;9.40;4.45;;;6.30;99.90;;;;;;5032408;28;20197;-85
2023/01/12 08:46:48;;;;;;;7.80;3.80;;;6.30;99.90;;;;;;5049150;28;20246;-85
2023/01/12 08:49:17;;;;;;;6.40;3.60;;;6.40;99.90;;;;;;5044310;28;20344;-87
2023/01/12 08:51:44;;;;;;;10.73;3.38;;;6.50;99.90;;;;;;5036816;28;20224;-85
2023/01/12 08:54:15;;;;;;;5.22;3.85;;;6.60;99.90;;;;;;5056120;28;20211;-84
2023/01/12 08:56:42;;;;;;;5.40;2.80;;;6.80;99.90;;;;;;5035224;28;20217;-83
2023/01/12 08:59:09;;;;;;;6.82;2.30;;;6.80;99.90;;;;;;5037861;28;20208;-89
2023/01/12 09:01:35;;;;;;;4.15;3.08;;;6.90;99.90;;;;;;5049550;28;20247;-87
2023/01/12 09:04:04;;;;;;;5.35;2.78;;;7.00;99.90;;;;;;5057334;28;20205;-85
2023/01/12 09:06:35;;;;;;;5.18;2.55;;;7.10;99.90;;;;;;5029597;28;20209;-83
2023/01/12 09:09:08;;;;;;;4.15;2.80;;;7.10;99.90;;;;;;5043195;28;20281;-83
2023/01/12 09:11:37;;;;;;;9.98;3.40;;;7.20;99.90;;;;;;5039507;28;20223;-86
2023/01/12 09:14:05;;;;;;;4.20;2.35;;;7.40;99.90;;;;;;5055712;28;20239;-86
2023/01/12 09:16:32;;;;;;;3.03;2.65;;;7.60;99.90;;;;;;5039737;28;20271;-83
2023/01/12 09:18:59;;;;;;;15.35;3.60;;;7.70;99.90;;;;;;5041248;28;20228;-89
2023/01/12 09:21:28;;;;;;;6.45;3.17;;;7.70;99.90;;;;;;5043751;28;20225;-83
2023/01/12 09:23:56;;;;;;;3.70;2.20;;;7.70;99.90;;;;;;5037618;28;20217;-87
2023/01/12 09:26:30;;;;;;;3.83;3.45;;;7.80;99.90;;;;;;5050272;28;20216;-90
2023/01/12 09:28:59;;;;;;;5.25;2.67;;;7.80;99.90;;;;;;5034083;28;20208;-84
2023/01/12 09:31:27;;;;;;;6.53;2.30;;;7.90;99.90;;;;;;5039801;28;20213;-85
2023/01/12 09:33:55;;;;;;;3.55;2.97;;;8.00;99.90;;;;;;5059867;28;20207;-86
2023/01/12 09:36:31;;;;;;;2.90;2.10;;;8.10;99.90;;;;;;5035288;28;20203;-85
2023/01/12 09:38:58;;;;;;;4.13;2.58;;;8.30;99.90;;;;;;5033085;28;20230;-88
2023/01/12 09:47:33;;;;;;;6.43;2.65;;;8.40;99.90;;;;;;5030853;28;20201;-84
2023/01/12 09:50:21;;;;;;;2.72;1.88;;;8.50;99.90;;;;;;5038932;28;20208;-83
2023/01/12 09:52:54;;;;;;;4.93;2.60;;;8.50;99.90;;;;;;5037870;28;20229;-83
2023/01/12 09:55:24;;;;;;;4.82;2.10;;;8.70;99.90;;;;;;5036712;28;20259;-83
2023/01/12 09:58:25;;;;;;;7.85;2.92;;;8.80;99.90;;;;;;5040824;28;20228;-86
2023/01/12 10:00:56;;;;;;;4.60;2.92;;;9.00;99.90;;;;;;5042581;28;20206;-86
2023/01/12 10:03:34;;;;;;;6.90;2.83;;;9.30;99.90;;;;;;5041805;28;20212;-84
2023/01/12 10:06:01;;;;;;;5.30;2.30;;;9.60;99.90;;;;;;5048117;28;20218;-85
2023/01/12 10:08:47;;;;;;;4.22;2.28;;;9.50;99.90;;;;;;5055239;28;20201;-84
2023/01/12 10:11:32;;;;;;;3.78;2.10;;;9.60;99.90;;;;;;5029997;28;20586;-82
2023/01/12 10:14:11;;;;;;;5.40;2.15;;;9.60;99.90;;;;;;5033794;28;20231;-82
2023/01/12 10:17:03;;;;;;;3.40;2.72;;;9.60;99.90;;;;;;5033989;28;20213;-83
2023/01/12 10:19:37;;;;;;;4.50;2.08;;;9.80;99.90;;;;;;5030039;28;20208;-89
2023/01/12 10:22:37;;;;;;;10.90;3.85;;;10.10;99.90;;;;;;5039087;28;20214;-81
2023/01/12 10:25:41;;;;;;;5.32;2.05;;;10.20;99.90;;;;;;5035267;28;20202;-85
2023/01/12 10:28:13;;;;;;;5.35;3.60;;;10.30;99.90;;;;;;5037607;28;20697;-86
2023/01/12 10:30:41;;;;;;;7.90;2.42;;;10.30;99.90;;;;;;5031433;28;20208;-85
2023/01/12 10:33:09;;;;;;;5.90;2.17;;;10.30;99.90;;;;;;5044482;28;20240;-84
2023/01/12 10:35:57;;;;;;;10.02;2.95;;;10.30;99.90;;;;;;5047139;28;20219;-86
2023/01/12 10:38:26;;;;;;;4.38;2.50;;;10.20;99.90;;;;;;5041313;28;20203;-86
2023/01/12 10:41:15;;;;;;;5.20;2.20;;;10.20;99.90;;;;;;5045316;28;20210;-83
2023/01/12 10:43:45;;;;;;;5.18;2.92;;;10.30;99.90;;;;;;5032985;28;20293;-87
2023/01/12 10:46:21;;;;;;;3.30;1.67;;;10.20;99.90;;;;;;5033491;28;20213;-86
2023/01/12 10:48:50;;;;;;;3.38;2.25;;;10.10;99.90;;;;;;5041287;28;20220;-84
2023/01/12 10:51:23;;;;;;;8.57;2.08;;;10.00;99.90;;;;;;5035415;28;20238;-84
2023/01/12 10:53:54;;;;;;;3.10;2.63;;;9.90;99.90;;;;;;5028959;28;20563;-89
2023/01/12 10:56:38;;;;;;;2.80;2.10;;;9.70;99.90;;;;;;5023180;28;20287;-86
2023/01/12 10:59:11;;;;;;;3.28;2.20;;;9.70;99.90;;;;;;5039193;28;20258;-87
2023/01/12 11:02:10;;;;;;;6.82;2.15;;;9.60;99.90;;;;;;5026679;28;20606;-84
2023/01/12 11:04:40;;;;;;;7.65;2.90;;;9.60;99.90;;;;;;5057610;28;20220;-85
2023/01/12 11:07:21;;;;;;;8.65;2.83;;;9.60;99.90;;;;;;5043696;28;20211;-85
2023/01/12 11:09:48;;;;;;;2.80;2.60;;;9.50;99.90;;;;;;5040036;28;20226;-83
2023/01/12 11:12:22;;;;;;;3.40;2.05;;;9.50;99.90;;;;;;5040574;28;20223;-87
2023/01/12 11:15:08;;;;;;;8.40;3.08;;;9.40;99.90;;;;;;5039745;28;20199;-86
2023/01/12 11:17:50;;;;;;;1.83;1.73;;;9.50;99.90;;;;;;5033173;28;20210;-88
2023/01/12 11:20:27;;;;;;;6.72;2.15;;;9.50;99.90;;;;;;5031706;28;20230;-85
2023/01/12 11:22:59;;;;;;;4.43;1.80;;;9.60;99.90;;;;;;5064702;28;20390;-84
2023/01/12 11:25:32;;;;;;;6.63;2.33;;;9.60;99.90;;;;;;5040507;28;20235;-87
2023/01/12 11:28:15;;;;;;;7.30;2.50;;;9.60;99.90;;;;;;5061544;28;20230;-82
2023/01/12 11:30:59;;;;;;;3.22;1.77;;;9.50;99.90;;;;;;5034488;28;20214;-85
2023/01/12 11:33:37;;;;;;;5.28;2.17;;;9.40;99.90;;;;;;5032546;28;20310;-84
2023/01/12 11:36:16;;;;;;;3.25;1.88;;;9.50;99.90;;;;;;5042633;28;20199;-84
2023/01/12 11:38:50;;;;;;;4.10;1.55;;;9.50;99.90;;;;;;5041807;28;20211;-84
2023/01/12 11:41:33;;;;;;;5.22;1.88;;;9.50;99.90;;;;;;5035456;28;20245;-88
2023/01/12 11:44:16;;;;;;;2.67;1.75;;;9.50;99.90;;;;;;5057395;28;20357;-86
2023/01/12 11:46:52;;;;;;;4.30;1.42;;;9.50;99.90;;;;;;5034698;28;20208;-84
2023/01/12 11:49:25;;;;;;;2.80;1.80;;;9.40;99.90;;;;;;5042235;28;20348;-87
2023/01/12 11:51:56;;;;;;;7.50;3.40;;;9.50;99.90;;;;;;5053298;28;20203;-86
2023/01/12 11:54:29;;;;;;;6.00;2.85;;;9.60;99.90;;;;;;5049977;28;20239;-89
2023/01/12 11:57:16;;;;;;;3.80;2.08;;;9.70;99.90;;;;;;5048678;28;20545;-85
2023/01/12 12:00:14;;;;;;;6.90;2.78;;;9.60;99.90;;;;;;5038549;28;20192;-86
2023/01/12 12:02:56;;;;;;;2.47;1.45;;;9.50;99.90;;;;;;5042758;28;20191;-83
2023/01/12 12:06:02;;;;;;;3.25;1.63;;;9.40;99.90;;;;;;5035836;28;20266;-84
2023/01/12 12:08:39;;;;;;;7.63;1.85;;;9.40;99.90;;;;;;5042954;28;20224;-83
2023/01/12 12:11:33;;;;;;;3.15;1.98;;;9.40;99.90;;;;;;5057130;28;20249;-83
2023/01/12 12:14:15;;;;;;;7.22;2.67;;;9.40;99.90;;;;;;5033182;28;20214;-85
2023/01/12 12:16:44;;;;;;;3.45;1.70;;;9.40;99.90;;;;;;5045957;28;20203;-85
2023/01/12 12:19:37;;;;;;;6.05;2.35;;;9.30;99.90;;;;;;5036204;28;20215;-86
2023/01/12 12:22:37;;;;;;;5.95;1.63;;;9.30;99.90;;;;;;5032210;28;20206;-83
2023/01/12 12:25:28;;;;;;;2.03;1.50;;;9.30;99.90;;;;;;5033924;28;20390;-84
2023/01/12 12:28:08;;;;;;;5.32;2.65;;;9.20;99.90;;;;;;5030782;28;20207;-86
2023/01/12 12:31:02;;;;;;;2.05;1.25;;;9.20;99.90;;;;;;5044845;28;20245;-82
2023/01/12 12:34:06;;;;;;;1.83;1.73;;;9.10;99.90;;;;;;5041915;28;20311;-83
2023/01/12 12:36:54;;;;;;;6.43;2.33;;;9.10;99.90;;;;;;5031712;28;20211;-83
2023/01/12 12:39:40;;;;;;;3.97;1.63;;;9.10;99.90;;;;;;5031852;28;20354;-85
2023/01/12 12:45:29;;;;;;;7.50;2.05;;;9.20;99.90;;;;;;5026053;28;20215;-86
2023/01/12 12:48:02;;;;;;;10.05;3.17;;;9.10;99.90;;;;;;5036289;28;20351;-83
2023/01/12 12:50:31;;;;;;;6.80;2.45;;;9.00;99.90;;;;;;5036754;28;20210;-85
2023/01/12 12:53:12;;;;;;;2.50;2.25;;;9.00;99.90;;;;;;5031396;28;20215;-87
2023/01/12 12:55:40;;;;;;;3.67;1.83;;;9.00;99.90;;;;;;5031193;28;20414;-88
2023/01/12 12:58:19;;;;;;;3.25;2.15;;;9.10;99.90;;;;;;5053793;28;20543;-86
2023/01/12 13:00:51;;;;;;;2.78;2.20;;;9.00;99.90;;;;;;5040131;28;20195;-86
2023/01/12 13:03:44;;;;;;;4.90;2.22;;;9.00;99.90;;;;;;5042021;28;20203;-85
2023/01/12 13:06:25;;;;;;;7.63;2.30;;;8.70;99.90;;;;;;5033617;28;20383;-83
2023/01/12 13:08:57;;;;;;;8.20;2.50;;;8.80;99.90;;;;;;5041668;28;20489;-86
2023/01/12 13:11:59;;;;;;;5.78;3.75;;;8.60;99.90;;;;;;5035038;28;20217;-82
2023/01/12 13:14:36;;;;;;;2.10;1.90;;;8.60;99.90;;;;;;5038935;28;20474;-85
2023/01/12 13:17:22;;;;;;;6.18;3.15;;;8.60;99.90;;;;;;5053124;28;20329;-88
2023/01/12 13:20:00;;;;;;;7.60;3.33;;;8.60;99.90;;;;;;5045680;28;20191;-87
2023/01/12 13:22:47;;;;;;;3.65;2.20;;;8.70;99.90;;;;;;5043419;28;20219;-87
2023/01/12 13:25:23;;;;;;;8.05;2.67;;;8.60;99.90;;;;;;5043358;28;20202;-84
2023/01/12 13:27:59;;;;;;;9.43;2.83;;;8.60;99.90;;;;;;5039453;28;20208;-86
2023/01/12 13:30:27;;;;;;;5.88;2.22;;;8.70;99.90;;;;;;5041518;28;20517;-84
2023/01/12 13:33:12;;;;;;;7.90;2.47;;;8.60;99.90;;;;;;5038360;28;20222;-85
2023/01/12 13:35:45;;;;;;;4.25;2.42;;;8.60;99.90;;;;;;5043060;28;20211;-86
2023/01/12 13:38:43;;;;;;;3.08;1.67;;;8.80;99.90;;;;;;5028836;28;20399;-85
2023/01/12 13:44:29;;;;;;;3.45;1.70;;;8.70;99.90;;;;;;5038432;28;20221;-87
2023/01/12 13:47:22;;;;;;;5.32;2.47;;;8.70;99.90;;;;;;5036799;28;20210;-84
2023/01/12 13:49:55;;;;;;;5.95;1.73;;;8.90;99.90;;;;;;5036090;28;20270;-85
2023/01/12 13:52:31;;;;;;;5.20;2.58;;;9.10;99.90;;;;;;5043475;28;20222;-85
2023/01/12 13:55:00;;;;;;;7.05;2.03;;;9.10;99.90;;;;;;5040091;28;20270;-86
2023/01/12 13:57:32;;;;;;;5.88;2.47;;;9.00;99.90;;;;;;5037482;28;20220;-86
2023/01/12 14:00:09;;;;;;;4.95;2.78;;;9.00;99.90;;;;;;5032540;28;20262;-85
2023/01/12 14:02:38;;;;;;;5.70;2.05;;;8.90;99.90;;;;;;5027478;28;20210;-86
2023/01/12 14:05:25;;;;;;;6.28;2.15;;;8.90;99.90;;;;;;5037634;28;20313;-83